Time;durP1;ratioP1;P1;durP2;ratioP2;P2;SDS_P1;SDS_P2;PMS_P1;PMS_P2;Temp;Humidity;BMP_temperature;BMP_pressure;BME280_temperature;BME280_humidity;BME280_pressure;Samples;Min_cycle;Max_cycle;Signal;HPM_P1;HPM_P2
2023/06/29 00:02:10;;;;;;;39.50;21.17;;;;;;;17.26;100.00;101612.75;10122857;29;20084;-75
2023/06/29 00:07:10;;;;;;;35.80;21.58;;;;;;;17.22;100.00;101604.16;10138592;29;20041;-75
2023/06/29 00:12:11;;;;;;;38.08;21.13;;;;;;;17.20;100.00;101602.75;10137880;29;20409;-75
2023/06/29 00:17:14;;;;;;;36.78;20.27;;;;;;;17.05;100.00;101576.66;10140079;29;20028;-76
2023/06/29 00:22:15;;;;;;;33.72;20.52;;;;;;;17.11;100.00;101592.19;10136933;29;20047;-75
2023/06/29 00:27:16;;;;;;;37.00;22.60;;;;;;;17.18;100.00;101591.06;10137894;29;20044;-75
2023/06/29 00:32:16;;;;;;;34.05;20.92;;;;;;;17.12;100.00;101577.19;10137338;29;20069;-75
2023/06/29 00:37:17;;;;;;;42.53;24.10;;;;;;;17.17;100.00;101589.41;10122522;29;20040;-75
2023/06/29 00:42:17;;;;;;;36.05;21.05;;;;;;;17.20;100.00;101591.63;10121540;29;20056;-75
2023/06/29 00:47:18;;;;;;;39.38;22.23;;;;;;;17.17;100.00;101581.06;10150703;29;20041;-74
2023/06/29 00:52:18;;;;;;;41.28;22.75;;;;;;;17.07;100.00;101565.22;10135747;29;20056;-76
2023/06/29 00:57:19;;;;;;;34.53;22.15;;;;;;;17.18;100.00;101579.94;10121668;29;20530;-76
2023/06/29 01:02:21;;;;;;;34.22;22.80;;;;;;;17.14;100.00;101572.16;10121861;29;20055;-75
2023/06/29 01:07:34;;;;;;;41.45;23.88;;;;;;;17.18;100.00;101566.03;10135943;29;20208;-75
2023/06/29 01:12:35;;;;;;;41.35;22.90;;;;;;;17.17;100.00;101569.94;10125950;29;20061;-75
2023/06/29 01:17:36;;;;;;;38.92;23.42;;;;;;;17.17;100.00;101558.81;10082245;29;20190;-76
2023/06/29 01:22:41;;;;;;;44.13;24.80;;;;;;;17.13;100.00;101570.47;10082070;29;20049;-75
2023/06/29 01:27:43;;;;;;;46.70;26.80;;;;;;;17.12;100.00;101557.72;10082727;29;20039;-75
2023/06/29 01:32:44;;;;;;;43.90;23.30;;;;;;;17.07;100.00;101541.00;10097418;29;20044;-75
2023/06/29 01:38:15;;;;;;;44.97;25.13;;;;;;;17.10;100.00;101548.81;10081480;29;20037;-75
2023/06/29 01:43:17;;;;;;;51.58;25.98;;;;;;;17.10;100.00;101542.41;10131592;29;20040;-76
2023/06/29 01:48:17;;;;;;;51.95;26.80;;;;;;;17.09;100.00;101541.56;10133841;29;20037;-75
2023/06/29 01:53:18;;;;;;;41.47;24.77;;;;;;;17.06;100.00;101536.56;10135271;29;20124;-74
2023/06/29 01:58:18;;;;;;;46.30;28.20;;;;;;;17.03;100.00;101523.25;10118993;29;20132;-74
2023/06/29 02:03:19;;;;;;;51.70;28.48;;;;;;;17.01;100.00;101522.69;10134407;29;20104;-75
2023/06/29 02:08:20;;;;;;;48.15;28.17;;;;;;;17.05;100.00;101534.06;10132026;29;20033;-75
2023/06/29 02:13:20;;;;;;;42.83;26.15;;;;;;;17.07;100.00;101535.44;10117379;29;20032;-76
2023/06/29 02:18:21;;;;;;;45.25;26.58;;;;;;;17.01;100.00;101517.13;10133934;29;20037;-75
2023/06/29 02:23:21;;;;;;;45.28;27.13;;;;;;;17.03;100.00;101526.03;10118528;29;20080;-76
2023/06/29 02:28:22;;;;;;;48.35;30.23;;;;;;;17.06;100.00;101525.44;10133991;29;20096;-76
2023/06/29 02:33:22;;;;;;;47.20;26.77;;;;;;;17.05;100.00;101521.00;10117642;29;20036;-76
2023/06/29 02:38:23;;;;;;;49.00;27.48;;;;;;;16.96;100.00;101497.66;10100727;29;20064;-76
2023/06/29 02:43:23;;;;;;;42.30;25.52;;;;;;;16.94;100.00;101494.31;10100826;29;20123;-76
2023/06/29 02:48:24;;;;;;;42.45;25.73;;;;;;;17.02;100.00;101496.53;10116920;29;20052;-76
2023/06/29 02:53:24;;;;;;;37.67;24.95;;;;;;;17.01;100.00;101488.47;10132969;29;20029;-76
2023/06/29 02:58:26;;;;;;;45.70;26.52;;;;;;;16.89;100.00;101472.09;10168092;29;20330;-75
2023/06/29 03:03:26;;;;;;;42.67;26.30;;;;;;;16.97;100.00;101481.78;10172149;29;20052;-75
2023/06/29 03:08:27;;;;;;;45.10;26.08;;;;;;;16.90;100.00;101484.88;10170095;29;20055;-73
2023/06/29 03:13:27;;;;;;;44.28;26.45;;;;;;;17.01;100.00;101500.44;10154458;29;20051;-75
2023/06/29 03:18:28;;;;;;;44.47;24.45;;;;;;;16.91;100.00;101476.25;10138571;29;20036;-75
2023/06/29 03:23:28;;;;;;;40.67;25.25;;;;;;;16.97;100.00;101485.44;10139459;29;20040;-75
2023/06/29 03:28:29;;;;;;;44.22;27.42;;;;;;;16.97;100.00;101485.44;10139262;29;20148;-75
2023/06/29 03:33:29;;;;;;;41.47;25.15;;;;;;;16.99;100.00;101479.56;10154339;29;20040;-76
2023/06/29 03:38:30;;;;;;;43.97;25.00;;;;;;;16.93;100.00;101464.84;10097679;29;20060;-75
2023/06/29 03:43:30;;;;;;;35.70;22.02;;;;;;;17.04;100.00;101466.47;10144629;29;20498;-76
2023/06/29 03:48:31;;;;;;;36.05;22.80;;;;;;;17.10;100.00;101473.69;10123120;29;20040;-75
2023/06/29 03:53:31;;;;;;;39.75;23.25;;;;;;;17.16;100.00;101471.72;10154346;29;20048;-76
2023/06/29 03:58:32;;;;;;;39.15;22.70;;;;;;;17.23;100.00;101482.56;10131184;29;20065;-75
2023/06/29 04:03:32;;;;;;;39.58;24.02;;;;;;;17.26;100.00;101479.19;10115147;29;20033;-75
2023/06/29 04:08:33;;;;;;;38.22;22.45;;;;;;;17.24;100.00;101451.66;10114141;29;20397;-76
2023/06/29 04:13:34;;;;;;;36.28;20.45;;;;;;;17.37;100.00;101464.13;10114566;29;20037;-75
2023/06/29 04:18:35;;;;;;;36.00;21.95;;;;;;;17.48;100.00;101467.69;10114785;29;20132;-75
2023/06/29 04:23:35;;;;;;;34.28;21.30;;;;;;;17.59;100.00;101454.53;10130419;29;20040;-76
2023/06/29 04:28:36;;;;;;;34.33;18.65;;;;;;;17.69;100.00;101466.47;10115277;29;20033;-75
2023/06/29 04:33:37;;;;;;;29.88;19.00;;;;;;;17.73;100.00;101447.19;10134934;29;20093;-76
2023/06/29 04:38:38;;;;;;;32.38;19.60;;;;;;;17.86;100.00;101449.38;10121476;29;20048;-76
2023/06/29 04:43:38;;;;;;;34.95;19.77;;;;;;;17.67;100.00;101401.00;10137682;29;20041;-76
2023/06/29 04:48:39;;;;;;;30.35;17.98;;;;;;;18.01;100.00;101445.66;10137174;29;20517;-76
2023/06/29 04:53:39;;;;;;;28.50;19.10;;;;;;;17.86;100.00;101407.59;10137596;29;20075;-74
2023/06/29 04:58:40;;;;;;;31.33;18.45;;;;;;;18.01;100.00;101419.75;10120990;29;20041;-76
2023/06/29 05:03:40;;;;;;;36.28;20.27;;;;;;;18.02;100.00;101415.81;10096427;29;20064;-76
2023/06/29 05:08:41;;;;;;;31.13;18.13;;;;;;;18.06;100.00;101414.13;10098909;29;20387;-77
2023/06/29 05:13:41;;;;;;;40.78;20.17;;;;;;;17.84;100.00;101372.78;10120867;29;20045;-76
2023/06/29 05:18:42;;;;;;;34.35;19.83;;;;;;;18.20;100.00;101423.47;10136698;29;20138;-77
2023/06/29 05:23:43;;;;;;;32.75;20.23;;;;;;;18.33;100.00;101425.59;10120112;29;20097;-76
2023/06/29 05:28:43;;;;;;;34.42;21.42;;;;;;;18.45;100.00;101411.25;10104293;29;20409;-76
2023/06/29 05:33:44;;;;;;;32.90;20.27;;;;;;;18.72;100.00;101410.66;10119403;29;20476;-76
2023/06/29 05:38:44;;;;;;;33.22;21.35;;;;;;;19.03;100.00;101415.09;10133380;29;20056;-76
2023/06/29 05:43:45;;;;;;;31.42;19.80;;;;;;;19.16;100.00;101408.75;10118108;29;20044;-76
2023/06/29 05:48:45;;;;;;;31.83;18.48;;;;;;;19.40;100.00;101400.34;10135265;29;20032;-76
2023/06/29 05:53:46;;;;;;;33.95;19.67;;;;;;;19.47;100.00;101400.81;10118922;29;20052;-76
2023/06/29 05:58:46;;;;;;;33.10;19.25;;;;;;;19.61;100.00;101400.88;10103208;29;20049;-73
2023/06/29 06:03:47;;;;;;;32.53;19.30;;;;;;;19.62;100.00;101382.16;10117622;29;20112;-75
2023/06/29 06:08:48;;;;;;;32.20;19.10;;;;;;;19.92;100.00;101392.84;10132400;29;20101;-75
2023/06/29 06:13:48;;;;;;;28.38;17.95;;;;;;;20.11;100.00;101400.38;10132265;29;20040;-75
2023/06/29 06:18:48;;;;;;;29.17;18.90;;;;;;;20.19;100.00;101382.88;10118150;29;20374;-75
2023/06/29 06:23:50;;;;;;;28.58;19.13;;;;;;;20.34;100.00;101388.22;10134281;29;20037;-74
2023/06/29 06:28:51;;;;;;;30.25;19.20;;;;;;;20.38;100.00;101384.78;10136255;29;20033;-75
2023/06/29 06:33:52;;;;;;;32.05;18.30;;;;;;;20.52;100.00;101382.84;10133262;29;20048;-75
2023/06/29 06:38:53;;;;;;;33.80;20.77;;;;;;;20.47;100.00;101360.59;10133239;29;20036;-75
2023/06/29 06:43:53;;;;;;;30.92;19.30;;;;;;;20.82;100.00;101381.44;10134344;29;20429;-75
2023/06/29 06:48:53;;;;;;;27.98;18.10;;;;;;;21.13;100.00;101369.59;10101497;29;20048;-76
2023/06/29 06:53:54;;;;;;;36.65;21.65;;;;;;;21.19;100.00;101337.53;10134381;29;20052;-76
2023/06/29 06:58:55;;;;;;;32.03;17.63;;;;;;;21.35;100.00;101352.00;10102548;29;20052;-76
2023/06/29 07:03:55;;;;;;;32.78;19.70;;;;;;;21.45;100.00;101351.78;10132586;29;20049;-76
2023/06/29 07:08:57;;;;;;;35.20;19.77;;;;;;;21.42;100.00;101349.63;10101522;29;20037;-75
2023/06/29 07:13:58;;;;;;;29.17;17.48;;;;;;;21.44;100.00;101366.13;10117128;29;20045;-75
2023/06/29 07:19:11;;;;;;;31.42;18.55;;;;;;;21.30;100.00;101357.72;10130824;29;20044;-75
2023/06/29 07:24:12;;;;;;;30.52;19.20;;;;;;;21.20;100.00;101357.97;10115756;29;20455;-75
2023/06/29 07:29:13;;;;;;;34.05;18.23;;;;;;;21.06;100.00;101349.59;10123259;29;20072;-72
2023/06/29 07:34:14;;;;;;;33.53;18.45;;;;;;;20.98;100.00;101356.78;10095461;29;20040;-73
2023/06/29 07:39:14;;;;;;;35.10;19.77;;;;;;;20.74;100.00;101357.81;10112981;29;20052;-71
2023/06/29 07:44:15;;;;;;;27.33;18.65;;;;;;;20.45;100.00;101357.25;10096541;29;20040;-72
2023/06/29 07:49:15;;;;;;;35.75;19.92;;;;;;;20.09;100.00;101308.47;10098301;29;20044;-72
2023/06/29 07:54:16;;;;;;;30.20;19.58;;;;;;;20.25;100.00;101338.91;10119493;29;20131;-72
2023/06/29 07:59:17;;;;;;;26.50;18.08;;;;;;;20.37;100.00;101375.59;10126581;29;20494;-73
2023/06/29 08:04:17;;;;;;;29.83;18.13;;;;;;;20.51;100.00;101358.81;10152430;29;20051;-73
2023/06/29 08:09:19;;;;;;;36.60;20.60;;;;;;;20.59;100.00;101346.94;10156631;29;20032;-70
2023/06/29 08:14:19;;;;;;;27.88;17.95;;;;;;;20.56;100.00;101339.94;10159810;29;20661;-72
2023/06/29 08:19:20;;;;;;;31.10;18.15;;;;;;;20.61;100.00;101339.06;10163998;29;20048;-73
2023/06/29 08:24:21;;;;;;;31.67;17.77;;;;;;;20.78;100.00;101334.81;10144487;29;20103;-73
2023/06/29 08:29:21;;;;;;;29.88;17.95;;;;;;;21.00;100.00;101308.84;10145150;29;20481;-73
2023/06/29 08:34:22;;;;;;;30.77;17.42;;;;;;;21.76;100.00;101317.41;10177718;29;20416;-73
2023/06/29 08:39:22;;;;;;;32.13;18.48;;;;;;;22.13;100.00;101295.69;10144673;29;20134;-73
2023/06/29 08:44:23;;;;;;;30.55;18.73;;;;;;;22.52;100.00;101291.25;10144100;29;20135;-73
2023/06/29 08:49:23;;;;;;;31.88;19.08;;;;;;;22.65;100.00;101276.25;10157867;29;20047;-73
2023/06/29 08:54:26;;;;;;;28.45;18.38;;;;;;;22.74;100.00;101288.34;10165322;29;20044;-72
2023/06/29 08:59:26;;;;;;;27.48;18.13;;;;;;;22.59;100.00;101311.25;10121280;29;20058;-72
2023/06/29 09:04:27;;;;;;;31.20;19.23;;;;;;;22.32;100.00;101301.91;10112803;29;20064;-73
2023/06/29 09:09:27;;;;;;;31.33;20.67;;;;;;;22.09;100.00;101308.72;10087298;29;20472;-72
2023/06/29 09:14:28;;;;;;;36.85;22.30;;;;;;;21.90;100.00;101292.94;10099405;29;20504;-71
2023/06/29 09:19:29;;;;;;;32.50;22.20;;;;;;;22.11;100.00;101315.63;10101691;29;20040;-71
2023/06/29 09:24:30;;;;;;;44.47;22.85;;;;;;;22.25;100.00;101298.75;10098142;29;20044;-71
2023/06/29 09:29:30;;;;;;;36.58;22.90;;;;;;;22.63;100.00;101295.41;10092562;29;20486;-72
2023/06/29 09:34:31;;;;;;;32.05;22.13;;;;;;;22.93;100.00;101278.81;10084258;29;20048;-71
2023/06/29 09:39:31;;;;;;;33.25;21.50;;;;;;;23.14;100.00;101279.00;10115711;29;20048;-71
2023/06/29 09:44:32;;;;;;;35.22;21.50;;;;;;;23.19;100.00;101276.03;10112404;29;20896;-71
2023/06/29 09:49:51;;;;;;;40.05;23.33;;;;;;;23.26;100.00;101275.56;10085393;29;20620;-72
2023/06/29 09:54:51;;;;;;;33.05;22.65;;;;;;;23.01;100.00;101266.78;10102190;29;20040;-72
2023/06/29 09:59:52;;;;;;;32.58;21.60;;;;;;;22.87;100.00;101264.09;10109261;29;20076;-72
2023/06/29 10:04:52;;;;;;;35.17;21.85;;;;;;;22.77;100.00;101284.06;10135946;29;20568;-72
2023/06/29 10:09:53;;;;;;;33.97;21.38;;;;;;;22.89;100.00;101272.19;10123262;29;20533;-72
2023/06/29 10:14:55;;;;;;;32.35;20.30;;;;;;;23.08;100.00;101255.88;10122026;29;20413;-73
2023/06/29 10:19:56;;;;;;;28.55;18.88;;;;;;;23.71;100.00;101255.47;10122405;29;20044;-73
2023/06/29 10:25:01;;;;;;;37.95;20.20;;;;;;;23.97;100.00;101245.00;10120162;29;20051;-72
2023/06/29 10:30:03;;;;;;;31.10;19.37;;;;;;;23.95;100.00;101247.31;10120401;29;20587;-73
2023/06/29 10:35:08;;;;;;;26.75;17.00;;;;;;;23.49;100.00;101248.91;10120906;29;20067;-73
2023/06/29 10:40:18;;;;;;;28.95;18.15;;;;;;;23.17;100.00;101237.06;10120306;29;20043;-72
2023/06/29 10:45:19;;;;;;;27.67;17.67;;;;;;;23.46;100.00;101246.78;10147056;29;20060;-72
2023/06/29 10:50:21;;;;;;;25.05;16.08;;;;;;;23.37;100.00;101215.06;10152665;29;20068;-72
2023/06/29 10:55:23;;;;;;;28.83;18.63;;;;;;;23.00;100.00;101233.38;10127902;29;20047;-73
2023/06/29 11:00:25;;;;;;;29.38;19.15;;;;;;;22.58;100.00;101259.09;10134185;29;20052;-71
2023/06/29 11:05:25;;;;;;;31.60;20.70;;;;;;;22.28;100.00;101258.00;10135312;29;20293;-71
2023/06/29 11:10:26;;;;;;;38.30;22.00;;;;;;;21.95;100.00;101259.19;10154870;29;20039;-71
2023/06/29 11:15:26;;;;;;;33.22;20.70;;;;;;;21.76;100.00;101247.34;10120308;29;20074;-73
2023/06/29 11:20:27;;;;;;;31.42;19.10;;;;;;;21.99;100.00;101258.53;10125888;29;20073;-72
2023/06/29 11:25:31;;;;;;;27.95;19.52;;;;;;;22.13;100.00;101251.66;10133389;29;20162;-73
2023/06/29 11:30:31;;;;;;;32.90;19.92;;;;;;;22.18;100.00;101247.91;10111849;29;20036;-72
2023/06/29 11:35:32;;;;;;;30.20;18.60;;;;;;;22.15;100.00;101249.34;10140562;29;20048;-72
2023/06/29 11:40:33;;;;;;;31.20;18.80;;;;;;;22.18;100.00;101242.28;10161348;29;20036;-71
2023/06/29 11:45:33;;;;;;;30.10;18.17;;;;;;;22.09;100.00;101238.63;10150917;29;20053;-72
2023/06/29 11:50:36;;;;;;;29.05;17.77;;;;;;;22.01;100.00;101234.63;10136835;29;20040;-72
2023/06/29 11:55:36;;;;;;;29.27;18.15;;;;;;;22.10;100.00;101232.69;10113944;29;20106;-73
2023/06/29 12:00:37;;;;;;;30.10;18.67;;;;;;;22.42;100.00;101229.84;10114285;29;20052;-72
2023/06/29 12:05:43;;;;;;;32.85;20.58;;;;;;;22.59;100.00;101235.47;10100812;29;20044;-72
2023/06/29 12:10:44;;;;;;;38.10;21.40;;;;;;;22.49;100.00;101224.56;10114444;29;20048;-72
2023/06/29 12:15:44;;;;;;;28.17;19.70;;;;;;;22.63;100.00;101202.81;10131150;29;20036;-71
2023/06/29 12:20:48;;;;;;;33.85;19.65;;;;;;;22.73;100.00;101160.38;10131909;29;20044;-72
2023/06/29 12:25:49;;;;;;;38.78;20.90;;;;;;;23.03;100.00;101216.75;10115389;29;20048;-72
2023/06/29 12:30:50;;;;;;;30.85;20.08;;;;;;;23.10;100.00;101205.81;10132380;29;20048;-70
2023/06/29 12:35:51;;;;;;;32.05;20.73;;;;;;;23.16;100.00;101204.50;10114367;29;20081;-71
2023/06/29 12:40:51;;;;;;;33.65;20.58;;;;;;;23.48;100.00;101201.47;10113423;29;20048;-71
2023/06/29 12:45:51;;;;;;;31.73;19.58;;;;;;;23.78;100.00;101191.16;10131677;29;20037;-71
2023/06/29 12:50:59;;;;;;;31.83;21.75;;;;;;;24.01;100.00;101165.59;10130146;29;20041;-71
2023/06/29 12:56:00;;;;;;;30.42;20.30;;;;;;;24.32;100.00;101171.69;10121977;29;20059;-71
2023/06/29 13:01:00;;;;;;;31.52;20.33;;;;;;;25.08;100.00;101169.81;10160819;29;20045;-71
2023/06/29 13:06:01;;;;;;;32.03;20.40;;;;;;;25.97;100.00;101148.78;10177366;29;20051;-71
2023/06/29 13:11:02;;;;;;;28.98;19.17;;;;;;;27.31;100.00;101132.66;10142627;29;20512;-74
2023/06/29 13:16:02;;;;;;;29.20;19.00;;;;;;;27.38;100.00;101120.72;10158474;29;20396;-72
2023/06/29 13:21:03;;;;;;;29.67;19.30;;;;;;;27.13;100.00;101126.47;10176245;29;20036;-69
2023/06/29 13:26:03;;;;;;;27.63;18.75;;;;;;;26.13;100.00;101148.91;10159345;29;20404;-69
2023/06/29 13:31:04;;;;;;;26.83;18.45;;;;;;;25.28;100.00;101137.16;10144402;29;20508;-71
2023/06/29 13:36:04;;;;;;;29.92;18.60;;;;;;;24.61;100.00;101141.06;10157858;29;20551;-71
2023/06/29 13:41:05;;;;;;;28.50;18.52;;;;;;;24.09;100.00;101145.84;10161279;29;20504;-71
2023/06/29 13:46:06;;;;;;;28.95;18.58;;;;;;;23.88;100.00;101126.13;10157062;29;20336;-71
2023/06/29 13:51:06;;;;;;;31.95;19.92;;;;;;;23.65;100.00;101144.38;10118265;29;20077;-71
2023/06/29 13:56:06;;;;;;;29.20;17.45;;;;;;;23.63;100.00;101143.91;10118367;29;20048;-71
2023/06/29 14:01:07;;;;;;;32.88;18.95;;;;;;;23.69;100.00;101112.47;10119061;29;20060;-71
2023/06/29 14:06:07;;;;;;;25.50;18.10;;;;;;;24.15;100.00;101133.25;10087770;29;20036;-71
2023/06/29 14:11:08;;;;;;;27.05;17.92;;;;;;;24.44;100.00;101122.31;10108477;29;20071;-71
2023/06/29 14:16:08;;;;;;;22.23;13.70;;;;;;;24.53;100.00;101094.94;10154055;29;20044;-70
2023/06/29 14:21:09;;;;;;;21.65;12.88;;;;;;;24.80;100.00;101101.16;10173555;29;20088;-70
2023/06/29 14:26:10;;;;;;;17.45;11.88;;;;;;;24.77;100.00;101086.59;10141531;29;20052;-70
2023/06/29 14:31:11;;;;;;;19.10;12.82;;;;;;;24.93;100.00;101100.06;10141890;29;20037;-71
2023/06/29 14:36:11;;;;;;;21.85;13.02;;;;;;;24.99;100.00;101098.63;10172897;29;20040;-71
2023/06/29 14:41:12;;;;;;;18.75;12.77;;;;;;;25.09;100.00;101075.66;10144770;29;20047;-71
2023/06/29 14:46:12;;;;;;;20.55;13.85;;;;;;;24.80;100.00;101107.59;10125145;29;20040;-70
2023/06/29 14:51:13;;;;;;;28.15;15.82;;;;;;;23.44;100.00;101152.72;10117126;29;20045;-70
2023/06/29 14:56:13;;;;;;;30.45;17.75;;;;;;;21.83;100.00;101169.25;10138775;29;20032;-70
2023/06/29 15:01:14;;;;;;;33.22;17.77;;;;;;;20.64;100.00;101198.56;10164671;29;20063;-70
2023/06/29 15:06:14;;;;;;;35.95;18.52;;;;;;;19.95;100.00;101187.44;10172459;29;20056;-68
2023/06/29 15:11:15;;;;;;;33.17;17.15;;;;;;;19.43;100.00;101207.09;10154779;29;20049;-69
2023/06/29 15:16:15;;;;;;;34.25;17.80;;;;;;;19.36;100.00;101201.88;10171318;29;20433;-72
2023/06/29 15:21:16;;;;;;;27.23;16.13;;;;;;;19.24;100.00;101186.75;10155100;29;20040;-70
2023/06/29 15:26:17;;;;;;;30.63;16.30;;;;;;;19.18;100.00;101193.56;10172325;29;20043;-69
2023/06/29 15:31:17;;;;;;;32.95;17.27;;;;;;;19.32;100.00;101191.63;10172855;29;20032;-69
2023/06/29 15:36:18;;;;;;;29.70;17.83;;;;;;;19.36;100.00;101157.22;10162390;29;20064;-69
2023/06/29 15:41:18;;;;;;;31.88;18.52;;;;;;;19.75;100.00;101174.69;10154376;29;20044;-70
2023/06/29 15:46:19;;;;;;;35.67;19.83;;;;;;;20.03;100.00;101146.75;10167122;29;20048;-69
2023/06/29 15:51:20;;;;;;;34.13;19.52;;;;;;;20.49;100.00;101143.78;10153739;29;20040;-70
2023/06/29 15:56:20;;;;;;;31.80;17.92;;;;;;;20.93;100.00;101153.38;10154593;29;20516;-71
2023/06/29 16:01:21;;;;;;;34.20;19.60;;;;;;;20.61;100.00;101106.91;10154903;29;20100;-76
2023/06/29 16:06:28;;;;;;;37.53;19.88;;;;;;;20.94;100.00;101157.84;10155434;29;20044;-70
2023/06/29 16:11:30;;;;;;;37.95;19.63;;;;;;;20.93;100.00;101158.97;10153932;29;20163;-72
2023/06/29 16:16:30;;;;;;;44.42;22.60;;;;;;;21.00;100.00;101163.31;10169825;29;20408;-71
2023/06/29 16:21:31;;;;;;;34.17;17.30;;;;;;;20.56;100.00;101155.34;10170580;29;20036;-71
2023/06/29 16:26:31;;;;;;;27.52;15.73;;;;;;;20.01;100.00;101157.41;10172718;29;20036;-75
2023/06/29 16:31:32;;;;;;;21.13;11.85;;;;;;;19.73;100.00;101160.22;10162115;29;20047;-75
2023/06/29 16:36:33;;;;;;;20.52;10.85;;;;;;;19.64;100.00;101178.81;10161864;29;20064;-70
2023/06/29 16:41:33;;;;;;;15.27;8.65;;;;;;;19.48;100.00;101151.16;10160049;29;20489;-73
2023/06/29 16:46:34;;;;;;;12.55;8.50;;;;;;;19.70;100.00;101172.84;10143736;29;20408;-73
2023/06/29 16:51:34;;;;;;;11.77;7.15;;;;;;;19.49;100.00;101163.13;10177352;29;20389;-71
2023/06/29 16:56:35;;;;;;;10.35;6.38;;;;;;;19.69;100.00;101184.28;10142012;29;20497;-67
2023/06/29 17:01:35;;;;;;;10.73;6.05;;;;;;;19.95;100.00;101174.28;10178065;29;20519;-71
2023/06/29 17:06:36;;;;;;;6.63;4.32;;;;;;;19.70;100.00;101180.31;10159493;29;20088;-70
2023/06/29 17:11:36;;;;;;;6.78;3.97;;;;;;;19.67;100.00;101170.59;10158263;29;20047;-70
2023/06/29 17:16:37;;;;;;;6.68;3.40;;;;;;;19.66;100.00;101188.53;10176404;29;20044;-69
2023/06/29 17:21:37;;;;;;;8.35;3.45;;;;;;;19.68;100.00;101185.44;10158367;29;20055;-70
2023/06/29 17:26:38;;;;;;;3.60;1.58;;;;;;;19.66;100.00;101191.31;10159211;29;20058;-70
2023/06/29 17:31:38;;;;;;;3.83;2.10;;;;;;;19.47;100.00;101182.16;10175091;29;20075;-70
2023/06/29 17:36:39;;;;;;;3.50;1.55;;;;;;;18.98;100.00;101209.50;10136712;29;20043;-70
2023/06/29 17:41:39;;;;;;;1.80;1.05;;;;;;;18.60;100.00;101215.03;10175313;29;20154;-70
2023/06/29 17:46:40;;;;;;;4.13;1.10;;;;;;;18.31;100.00;101196.50;10175320;29;20043;-70
2023/06/29 17:51:40;;;;;;;2.30;0.93;;;;;;;18.20;100.00;101222.81;10172966;29;20124;-70
2023/06/29 17:56:41;;;;;;;2.50;1.00;;;;;;;17.97;100.00;101229.22;10138705;29;20045;-70
2023/06/29 18:01:41;;;;;;;2.10;1.08;;;;;;;17.37;100.00;101174.69;10135391;29;20133;-70
2023/06/29 18:06:41;;;;;;;1.85;0.88;;;;;;;17.43;100.00;101245.88;10134897;29;20029;-70
2023/06/29 18:11:42;;;;;;;2.42;0.93;;;;;;;17.29;100.00;101244.88;10133754;29;20112;-71
2023/06/29 18:16:43;;;;;;;2.53;0.98;;;;;;;17.02;100.00;101229.50;10133773;29;20040;-71
2023/06/29 18:21:44;;;;;;;3.35;0.70;;;;;;;17.03;100.00;101242.28;10133400;29;20041;-70
2023/06/29 18:26:45;;;;;;;3.30;0.98;;;;;;;17.08;100.00;101250.59;10135281;29;20516;-70
2023/06/29 18:31:45;;;;;;;1.33;0.60;;;;;;;16.84;100.00;101232.94;10135395;29;20045;-70
2023/06/29 18:36:46;;;;;;;1.65;0.60;;;;;;;16.90;100.00;101254.03;10117738;29;20523;-70
2023/06/29 18:41:46;;;;;;;2.50;0.80;;;;;;;16.98;100.00;101261.78;10134797;29;20048;-70
2023/06/29 18:47:06;;;;;;;1.58;0.77;;;;;;;16.88;100.00;101273.78;10109565;29;20032;-70
2023/06/29 18:52:07;;;;;;;1.83;0.80;;;;;;;16.77;100.00;101257.44;10133406;29;20093;-71
2023/06/29 18:57:10;;;;;;;3.20;1.10;;;;;;;16.49;100.00;101218.09;10154144;29;20445;-71
2023/06/29 19:02:10;;;;;;;2.60;1.30;;;;;;;16.63;100.00;101260.84;10171878;29;20043;-71
2023/06/29 19:07:14;;;;;;;2.90;1.33;;;;;;;16.68;100.00;101274.72;10170125;29;20048;-72
2023/06/29 19:12:15;;;;;;;4.03;1.58;;;;;;;16.52;100.00;101271.19;10153692;29;20063;-72
2023/06/29 19:17:15;;;;;;;7.95;1.98;;;;;;;16.51;100.00;101277.00;10171615;29;20036;-71
2023/06/29 19:22:16;;;;;;;3.15;1.65;;;;;;;16.50;100.00;101278.16;10154307;29;20055;-71
2023/06/29 19:27:16;;;;;;;4.13;1.25;;;;;;;16.45;100.00;101281.75;10142876;29;20040;-70
2023/06/29 19:32:17;;;;;;;2.78;1.27;;;;;;;16.41;100.00;101279.84;10138737;29;20051;-70
2023/06/29 19:37:17;;;;;;;3.78;1.20;;;;;;;16.35;100.00;101273.50;10153349;29;20040;-71
2023/06/29 19:42:18;;;;;;;4.80;1.70;;;;;;;16.41;100.00;101293.72;10153012;29;20092;-71
2023/06/29 19:47:18;;;;;;;3.70;1.80;;;;;;;16.34;100.00;101308.75;10153604;29;20067;-72
2023/06/29 19:52:19;;;;;;;6.90;1.77;;;;;;;16.40;100.00;101312.34;10123052;29;20063;-71
2023/06/29 19:57:19;;;;;;;5.38;2.00;;;;;;;16.39;100.00;101318.19;10130944;29;20068;-71
2023/06/29 20:02:20;;;;;;;4.03;2.20;;;;;;;16.29;100.00;101316.28;10120132;29;20060;-72
2023/06/29 20:07:20;;;;;;;1.75;1.55;;;;;;;16.16;100.00;101286.31;10138247;29;20049;-71
2023/06/29 20:12:21;;;;;;;6.25;1.60;;;;;;;16.15;100.00;101293.81;10121543;29;20075;-71
2023/06/29 20:17:21;;;;;;;11.48;3.33;;;;;;;16.10;100.00;101296.59;10122655;29;20044;-71
2023/06/29 20:22:22;;;;;;;3.25;1.70;;;;;;;16.20;100.00;101307.69;10122576;29;20036;-72
2023/06/29 20:27:23;;;;;;;3.92;2.00;;;;;;;16.17;100.00;101301.88;10137692;29;20036;-72
2023/06/29 20:32:24;;;;;;;4.22;1.70;;;;;;;16.19;100.00;101321.88;10123388;29;20033;-72
2023/06/29 20:37:24;;;;;;;5.57;1.75;;;;;;;16.06;100.00;101323.25;10121874;29;20033;-71
2023/06/29 20:42:25;;;;;;;5.03;2.35;;;;;;;16.16;100.00;101339.91;10138699;29;20060;-71
2023/06/29 20:47:25;;;;;;;4.13;2.03;;;;;;;16.07;100.00;101328.53;10139451;29;20413;-71
2023/06/29 20:52:26;;;;;;;6.13;2.40;;;;;;;15.99;100.00;101317.19;10106055;29;20444;-72
2023/06/29 20:57:26;;;;;;;8.50;2.40;;;;;;;16.05;100.00;101321.63;10159319;29;20040;-72
2023/06/29 21:02:27;;;;;;;7.03;1.98;;;;;;;16.07;100.00;101333.28;10159005;29;20041;-72
2023/06/29 21:07:27;;;;;;;4.35;2.60;;;;;;;16.03;100.00;101319.09;10155455;29;20036;-71
2023/06/29 21:12:28;;;;;;;4.22;1.80;;;;;;;15.91;100.00;101305.50;10172541;29;20037;-71
2023/06/29 21:17:28;;;;;;;5.65;2.17;;;;;;;15.92;100.00;101306.38;10175146;29;20036;-72
2023/06/29 21:22:29;;;;;;;3.00;1.70;;;;;;;15.67;100.00;101257.22;10143237;29;20044;-72
2023/06/29 21:27:30;;;;;;;8.32;2.80;;;;;;;15.97;100.00;101325.78;10174287;29;20077;-72
2023/06/29 21:32:31;;;;;;;5.32;1.85;;;;;;;15.94;100.00;101318.03;10158649;29;20104;-71
2023/06/29 21:37:31;;;;;;;4.55;2.05;;;;;;;15.83;100.00;101297.75;10157494;29;20098;-72
2023/06/29 21:42:32;;;;;;;3.05;1.80;;;;;;;15.91;100.00;101311.06;10172095;29;20147;-73
2023/06/29 21:47:33;;;;;;;8.65;2.72;;;;;;;15.97;100.00;101322.19;10173922;29;20044;-73
2023/06/29 21:52:33;;;;;;;4.13;2.40;;;;;;;15.91;100.00;101319.41;10156923;29;20051;-71
2023/06/29 21:57:34;;;;;;;3.50;2.83;;;;;;;15.91;100.00;101327.72;10132912;29;20048;-71
2023/06/29 22:02:34;;;;;;;3.40;2.40;;;;;;;15.74;100.00;101299.44;10116920;29;20103;-71
2023/06/29 22:07:35;;;;;;;6.25;2.75;;;;;;;15.86;100.00;101330.53;10130946;29;20041;-72
2023/06/29 22:12:42;;;;;;;5.85;3.33;;;;;;;15.91;100.00;101340.78;10133528;29;20056;-70
2023/06/29 22:17:42;;;;;;;6.53;3.25;;;;;;;15.84;100.00;101323.59;10135901;29;20052;-71
2023/06/29 22:22:43;;;;;;;7.18;3.05;;;;;;;15.85;100.00;101328.84;10124833;29;20033;-72